createdAt,value
2019-01-25T00:01:05.669Z,25.23
2019-01-25T00:03:34.356Z,25.23
2019-01-25T00:06:02.955Z,25.27
2019-01-25T00:08:31.532Z,24.27
2019-01-25T00:11:00.101Z,25.23
2019-01-25T00:13:28.811Z,25.97
2019-01-25T00:15:57.452Z,28.47
2019-01-25T00:18:26.094Z,24.63
2019-01-25T00:20:55.946Z,25.03
2019-01-25T00:23:24.649Z,24.77
2019-01-25T00:25:53.231Z,28.93
2019-01-25T00:28:21.944Z,29.03
2019-01-25T00:30:50.952Z,29.87
2019-01-25T00:33:19.536Z,30.00
2019-01-25T00:35:48.183Z,28.70
2019-01-25T00:38:16.823Z,31.13
2019-01-25T00:40:45.418Z,30.77
2019-01-25T00:43:14.130Z,31.63
2019-01-25T00:45:42.748Z,31.13
2019-01-25T00:48:11.368Z,31.20
2019-01-25T00:50:40.039Z,31.87
2019-01-25T00:53:08.711Z,31.53
2019-01-25T00:55:37.499Z,29.93
2019-01-25T00:58:06.614Z,30.53
2019-01-25T01:00:35.411Z,32.80
2019-01-25T01:03:04.321Z,32.90
2019-01-25T01:05:32.935Z,31.87
2019-01-25T01:08:01.507Z,31.23
2019-01-25T01:10:30.130Z,32.07
2019-01-25T01:12:58.704Z,32.20
2019-01-25T01:15:27.688Z,29.90
2019-01-25T01:17:56.452Z,32.67
2019-01-25T01:20:25.145Z,33.07
2019-01-25T01:22:53.756Z,33.20
2019-01-25T01:25:22.418Z,32.30
2019-01-25T01:27:50.976Z,31.87
2019-01-25T01:30:21.942Z,30.27
2019-01-25T01:32:50.605Z,31.27
2019-01-25T01:35:19.424Z,29.93
2019-01-25T01:37:48.295Z,30.53
2019-01-25T01:40:22.100Z,31.90
2019-01-25T01:42:49.244Z,28.07
2019-01-25T01:45:17.924Z,31.57
2019-01-25T01:47:46.521Z,32.33
2019-01-25T01:50:15.851Z,32.30
2019-01-25T01:52:45.219Z,31.47
2019-01-25T01:55:14.041Z,30.63
2019-01-25T01:57:42.697Z,31.87
2019-01-25T02:00:20.859Z,29.83
2019-01-25T02:02:49.545Z,31.33
2019-01-25T02:05:18.152Z,31.03
2019-01-25T02:07:46.764Z,30.97
2019-01-25T02:10:18.158Z,31.33
2019-01-25T02:12:46.723Z,32.33
2019-01-25T02:15:16.650Z,32.97
2019-01-25T02:17:45.271Z,31.97
2019-01-25T02:20:16.988Z,32.07
2019-01-25T02:22:45.583Z,32.30
2019-01-25T02:25:14.368Z,28.63
2019-01-25T02:27:42.974Z,31.30
2019-01-25T02:30:14.716Z,31.50
2019-01-25T02:32:43.369Z,31.47
2019-01-25T02:35:11.988Z,33.07
2019-01-25T02:37:40.598Z,30.67
2019-01-25T02:40:10.461Z,33.00
2019-01-25T02:42:39.085Z,30.77
2019-01-25T02:45:09.339Z,33.07
2019-01-25T02:47:37.974Z,30.63
2019-01-25T02:50:09.024Z,33.40
2019-01-25T02:52:37.665Z,32.40
2019-01-25T02:55:06.577Z,32.33
2019-01-25T02:57:35.185Z,31.47
2019-01-25T03:00:05.230Z,32.33
2019-01-25T03:02:33.882Z,31.10
2019-01-25T03:05:02.517Z,32.27
2019-01-25T03:07:31.149Z,32.03
2019-01-25T03:09:59.751Z,34.00
2019-01-25T03:12:28.376Z,32.53
2019-01-25T03:14:56.976Z,34.63
2019-01-25T03:17:25.636Z,33.93
2019-01-25T03:19:54.316Z,32.47
2019-01-25T03:22:22.965Z,33.77
2019-01-25T03:24:51.541Z,33.80
2019-01-25T03:27:20.126Z,31.97
2019-01-25T03:29:48.726Z,34.63
2019-01-25T03:32:17.350Z,36.13
2019-01-25T03:34:45.928Z,33.80
2019-01-25T03:37:14.523Z,35.20
2019-01-25T03:39:43.165Z,36.67
2019-01-25T03:42:11.868Z,32.67
2019-01-25T03:44:40.490Z,32.63
2019-01-25T03:47:09.124Z,35.60
2019-01-25T03:49:37.773Z,34.97
2019-01-25T03:52:06.394Z,35.93
2019-01-25T03:54:35.015Z,35.60
2019-01-25T03:57:03.656Z,34.00
2019-01-25T03:59:32.235Z,36.10
2019-01-25T04:02:00.872Z,35.17
2019-01-25T04:04:29.457Z,34.77
2019-01-25T04:06:58.087Z,34.20
2019-01-25T04:09:26.650Z,35.97
2019-01-25T04:11:55.252Z,34.30
2019-01-25T04:14:23.844Z,36.70
2019-01-25T04:16:52.451Z,32.83
2019-01-25T04:19:21.055Z,35.63
2019-01-25T04:21:49.670Z,36.73
2019-01-25T04:24:18.306Z,36.67
2019-01-25T04:26:46.917Z,35.97
2019-01-25T04:29:15.527Z,35.03
2019-01-25T04:31:44.104Z,36.57
2019-01-25T04:34:12.748Z,36.07
2019-01-25T04:36:41.412Z,36.93
2019-01-25T04:39:10.041Z,34.07
2019-01-25T04:41:38.688Z,36.60
2019-01-25T04:44:07.555Z,35.90
2019-01-25T04:46:36.153Z,39.63
2019-01-25T04:49:04.779Z,37.83
2019-01-25T04:51:33.385Z,36.03
2019-01-25T04:54:01.991Z,34.48
2019-01-25T04:56:32.089Z,38.00
2019-01-25T04:59:00.690Z,39.07
2019-01-25T05:01:29.246Z,35.40
2019-01-25T05:03:57.872Z,36.93
2019-01-25T05:06:26.464Z,36.97
2019-01-25T05:08:55.159Z,37.43
2019-01-25T05:11:23.950Z,38.53
2019-01-25T05:13:52.652Z,38.03
2019-01-25T05:16:22.192Z,36.17
2019-01-25T05:18:50.829Z,37.93
2019-01-25T05:21:24.254Z,38.20
2019-01-25T05:23:52.983Z,35.50
2019-01-25T05:26:21.680Z,37.40
2019-01-25T05:28:50.314Z,37.40
2019-01-25T05:31:21.604Z,35.07
2019-01-25T05:33:55.155Z,39.73
2019-01-25T05:36:23.784Z,38.93
2019-01-25T05:38:52.393Z,40.27
2019-01-25T05:41:28.163Z,38.77
2019-01-25T05:43:51.412Z,39.43
2019-01-25T05:46:20.011Z,37.70
2019-01-25T05:48:48.669Z,36.73
2019-01-25T05:51:17.227Z,39.73
2019-01-25T05:53:50.552Z,39.90
2019-01-25T05:56:19.222Z,39.10
2019-01-25T05:58:47.835Z,36.77
2019-01-25T06:01:16.484Z,37.47
2019-01-25T06:03:45.089Z,39.03
2019-01-25T06:06:13.689Z,37.97
2019-01-25T06:08:44.077Z,41.37
2019-01-25T06:11:13.411Z,37.43
2019-01-25T06:13:45.963Z,35.47
2019-01-25T06:16:14.968Z,39.60
2019-01-25T06:18:43.658Z,36.93
2019-01-25T06:21:12.294Z,36.37
2019-01-25T06:23:41.461Z,38.60
2019-01-25T06:26:11.249Z,37.73
2019-01-25T06:28:39.890Z,40.30
2019-01-25T06:31:08.539Z,37.33
2019-01-25T06:33:37.207Z,36.27
2019-01-25T06:36:07.326Z,41.90
2019-01-25T06:38:36.393Z,37.57
2019-01-25T06:41:05.700Z,39.15
2019-01-25T06:43:34.281Z,41.03
2019-01-25T06:46:02.845Z,41.27
2019-01-25T06:48:31.440Z,40.60
2019-01-25T06:51:00.159Z,37.07
2019-01-25T06:53:28.794Z,41.27
2019-01-25T06:55:57.380Z,40.70
2019-01-25T06:58:44.477Z,40.08
2019-01-25T07:01:38.132Z,42.27
2019-01-25T07:04:06.728Z,40.00
2019-01-25T07:06:35.506Z,42.10
2019-01-25T07:09:07.035Z,44.53
2019-01-25T07:11:42.035Z,42.73
2019-01-25T07:14:06.078Z,42.03
2019-01-25T07:16:34.735Z,42.40
2019-01-25T07:19:03.712Z,43.63
2019-01-25T07:21:32.302Z,42.27
2019-01-25T07:24:00.915Z,43.23
2019-01-25T07:26:29.503Z,43.27
2019-01-25T07:28:58.164Z,42.50
2019-01-25T07:31:26.907Z,43.93
2019-01-25T07:33:55.523Z,42.50
2019-01-25T07:36:24.211Z,42.43
2019-01-25T07:38:53.509Z,42.70
2019-01-25T07:41:22.130Z,42.83
2019-01-25T07:43:50.709Z,41.63
2019-01-25T07:46:19.313Z,44.33
2019-01-25T07:48:47.975Z,42.73
2019-01-25T07:51:16.612Z,44.23
2019-01-25T07:53:45.254Z,42.13
2019-01-25T07:56:13.879Z,42.57
2019-01-25T07:58:42.479Z,43.60
2019-01-25T08:01:11.692Z,41.33
2019-01-25T08:03:40.757Z,41.13
2019-01-25T08:06:09.463Z,42.43
2019-01-25T08:08:38.180Z,43.37
2019-01-25T08:11:06.914Z,44.37
2019-01-25T08:13:35.565Z,40.97
2019-01-25T08:16:04.150Z,41.13
2019-01-25T08:18:32.767Z,43.73
2019-01-25T08:21:01.388Z,46.10
2019-01-25T08:23:30.004Z,45.50
2019-01-25T08:25:58.552Z,42.43
2019-01-25T08:28:27.136Z,44.43
2019-01-25T08:30:55.768Z,41.60
2019-01-25T08:33:24.509Z,43.77
2019-01-25T08:35:53.202Z,43.83
2019-01-25T08:38:21.829Z,44.33
2019-01-25T08:40:50.600Z,45.00
2019-01-25T08:43:19.161Z,44.30
2019-01-25T08:45:49.489Z,43.60
2019-01-25T08:48:18.329Z,42.67
2019-01-25T08:50:46.995Z,43.70
2019-01-25T08:53:16.201Z,44.30
2019-01-25T08:55:44.922Z,46.03
2019-01-25T08:58:13.909Z,45.50
2019-01-25T09:00:42.737Z,46.63
2019-01-25T09:03:11.386Z,46.33
2019-01-25T09:05:40.075Z,45.37
2019-01-25T09:08:08.708Z,44.23
2019-01-25T09:10:37.341Z,45.30
2019-01-25T09:13:05.916Z,43.63
2019-01-25T09:15:34.915Z,46.50
2019-01-25T09:18:03.556Z,45.00
2019-01-25T09:20:32.387Z,44.90
2019-01-25T09:23:01.030Z,42.30
2019-01-25T09:25:29.618Z,45.03
2019-01-25T09:27:58.242Z,46.13
2019-01-25T09:30:26.909Z,45.07
2019-01-25T09:32:55.553Z,46.43
2019-01-25T09:35:24.587Z,46.20
2019-01-25T09:37:53.278Z,47.00
2019-01-25T09:40:23.575Z,44.87
2019-01-25T09:42:52.588Z,45.28
2019-01-25T09:45:21.550Z,47.00
2019-01-25T09:47:50.159Z,50.25
2019-01-25T09:50:19.062Z,47.73
2019-01-25T09:52:48.022Z,45.87
2019-01-25T09:55:18.811Z,46.40
2019-01-25T09:57:48.151Z,48.03
2019-01-25T10:00:25.923Z,48.80
2019-01-25T10:02:54.880Z,46.00
2019-01-25T10:05:23.766Z,49.13
2019-01-25T10:07:52.432Z,46.07
2019-01-25T10:10:21.424Z,48.07
2019-01-25T10:12:50.052Z,49.27
2019-01-25T10:15:20.807Z,48.93
2019-01-25T10:17:49.432Z,49.97
2019-01-25T10:20:19.005Z,51.73
2019-01-25T10:22:47.735Z,47.50
2019-01-25T10:25:16.373Z,47.10
2019-01-25T10:27:45.099Z,51.87
2019-01-25T10:30:16.709Z,48.47
2019-01-25T10:32:45.319Z,48.27
2019-01-25T10:35:13.962Z,47.63
2019-01-25T10:37:42.615Z,49.33
2019-01-25T10:40:14.665Z,49.03
2019-01-25T10:42:45.566Z,49.13
2019-01-25T10:45:17.411Z,48.23
2019-01-25T10:47:46.067Z,49.27
2019-01-25T10:50:14.692Z,49.27
2019-01-25T10:52:43.313Z,49.60
2019-01-25T10:55:12.080Z,48.27
2019-01-25T10:57:40.716Z,45.70
2019-01-25T11:00:11.965Z,47.53
2019-01-25T11:02:40.587Z,48.10
2019-01-25T11:05:11.633Z,52.00
2019-01-25T11:07:40.314Z,49.97
2019-01-25T11:10:10.507Z,45.70
2019-01-25T11:12:39.113Z,52.87
2019-01-25T11:15:10.047Z,49.73
2019-01-25T11:17:38.680Z,52.63
2019-01-25T11:20:11.005Z,47.40
2019-01-25T11:22:39.609Z,50.57
2019-01-25T11:25:11.549Z,50.37
2019-01-25T11:27:40.130Z,48.53
2019-01-25T11:30:10.028Z,49.83
2019-01-25T11:32:38.631Z,49.87
2019-01-25T11:35:07.373Z,47.60
2019-01-25T11:37:36.051Z,49.77
2019-01-25T11:40:07.679Z,47.03
2019-01-25T11:42:36.246Z,50.37
2019-01-25T11:45:05.444Z,49.17
2019-01-25T11:47:34.097Z,49.37
2019-01-25T11:50:02.763Z,47.27
2019-01-25T11:52:31.403Z,45.47
2019-01-25T11:55:00.003Z,49.47
2019-01-25T11:57:28.682Z,47.57
2019-01-25T11:59:57.332Z,46.43
2019-01-25T12:02:25.941Z,48.37
2019-01-25T12:04:54.653Z,46.70
2019-01-25T12:07:23.277Z,46.97
2019-01-25T12:09:51.908Z,48.70
2019-01-25T12:12:20.806Z,46.53
2019-01-25T12:14:49.462Z,46.93
2019-01-25T12:17:18.127Z,49.47
2019-01-25T12:19:46.729Z,48.10
2019-01-25T12:22:15.328Z,50.93
2019-01-25T12:24:44.283Z,51.27
2019-01-25T12:27:12.863Z,46.70
2019-01-25T12:29:41.549Z,44.53
2019-01-25T12:32:10.418Z,43.97
2019-01-25T12:34:39.244Z,45.47
2019-01-25T12:37:07.835Z,44.57
2019-01-25T12:39:36.477Z,43.53
2019-01-25T12:42:05.387Z,43.57
2019-01-25T12:44:34.034Z,41.47
2019-01-25T12:47:02.617Z,44.77
2019-01-25T12:49:31.243Z,45.33
2019-01-25T12:52:08.168Z,42.83
2019-01-25T12:54:33.993Z,45.00
2019-01-25T12:57:02.648Z,42.63
2019-01-25T12:59:31.235Z,41.90
2019-01-25T13:02:00.439Z,40.40
2019-01-25T13:04:29.046Z,40.20
2019-01-25T13:06:57.712Z,39.10
2019-01-25T13:09:26.390Z,42.83
2019-01-25T13:11:55.125Z,37.77
2019-01-25T13:14:23.732Z,39.83
2019-01-25T13:16:52.449Z,38.60
2019-01-25T13:19:21.459Z,43.75
2019-01-25T13:21:50.043Z,44.30
2019-01-25T13:24:18.659Z,45.90
2019-01-25T13:26:47.282Z,45.10
2019-01-25T13:29:15.914Z,45.87
2019-01-25T13:31:44.818Z,46.00
2019-01-25T13:34:13.509Z,45.63
2019-01-25T13:36:42.087Z,46.70
2019-01-25T13:39:10.949Z,47.50
2019-01-25T13:41:39.540Z,47.03
2019-01-25T13:44:08.143Z,46.83
2019-01-25T13:46:36.728Z,45.73
2019-01-25T13:49:05.388Z,46.80
2019-01-25T13:51:33.999Z,47.03
2019-01-25T13:54:02.627Z,47.43
2019-01-25T13:56:31.239Z,45.57
2019-01-25T13:58:59.884Z,45.87
2019-01-25T14:01:34.604Z,46.20
2019-01-25T14:03:58.948Z,48.20
2019-01-25T14:06:27.551Z,43.77
2019-01-25T14:08:56.245Z,44.93
2019-01-25T14:11:25.071Z,43.90
2019-01-25T14:13:53.809Z,44.97
2019-01-25T14:16:22.407Z,46.33
2019-01-25T14:18:52.219Z,47.53
2019-01-25T14:21:21.132Z,45.93
2019-01-25T14:23:49.763Z,49.63
2019-01-25T14:26:18.410Z,43.63
2019-01-25T14:28:47.056Z,45.17
2019-01-25T14:31:15.703Z,47.47
2019-01-25T14:33:44.354Z,45.50
2019-01-25T14:36:12.971Z,44.47
2019-01-25T14:38:41.600Z,45.47
2019-01-25T14:41:10.196Z,45.30
2019-01-25T14:43:39.185Z,44.63
2019-01-25T14:46:07.805Z,47.27
2019-01-25T14:48:38.191Z,45.67
2019-01-25T14:51:06.986Z,48.17
2019-01-25T14:53:36.306Z,38.20
2019-01-25T14:56:04.903Z,32.43
2019-01-25T14:58:34.170Z,30.73
2019-01-25T15:01:02.787Z,30.13
2019-01-25T15:03:31.430Z,30.33
2019-01-25T15:05:59.999Z,31.17
2019-01-25T15:08:28.587Z,29.30
2019-01-25T15:10:57.217Z,34.73
2019-01-25T15:13:25.875Z,33.33
2019-01-25T15:15:54.572Z,33.03
2019-01-25T15:18:23.255Z,32.17
2019-01-25T15:20:51.888Z,31.20
2019-01-25T15:23:20.506Z,30.63
2019-01-25T15:25:49.131Z,31.20
2019-01-25T15:28:17.828Z,24.57
2019-01-25T15:30:46.549Z,26.47
2019-01-25T15:33:15.186Z,24.33
2019-01-25T15:35:43.806Z,17.77
2019-01-25T15:38:12.463Z,14.33
2019-01-25T15:40:41.051Z,13.57
2019-01-25T15:43:09.656Z,9.23
2019-01-25T15:45:38.306Z,11.63
2019-01-25T15:48:07.447Z,6.83
2019-01-25T15:50:36.030Z,6.17
2019-01-25T15:53:04.888Z,7.67
2019-01-25T15:55:33.848Z,6.30
2019-01-25T15:58:02.504Z,7.30
2019-01-25T16:00:31.253Z,8.10
2019-01-25T16:02:59.866Z,8.57
2019-01-25T16:05:28.537Z,8.53
2019-01-25T16:07:57.205Z,8.93
2019-01-25T16:10:25.822Z,11.83
2019-01-25T16:12:54.652Z,11.33
2019-01-25T16:15:25.387Z,14.00
2019-01-25T16:17:53.986Z,15.90
2019-01-25T16:20:22.646Z,16.90
2019-01-25T16:22:51.396Z,16.30
2019-01-25T16:25:22.594Z,16.40
2019-01-25T16:27:51.462Z,16.90
2019-01-25T16:30:22.445Z,17.73
2019-01-25T16:32:51.316Z,17.30
2019-01-25T16:35:19.997Z,18.17
2019-01-25T16:37:48.678Z,18.17
2019-01-25T16:40:18.327Z,17.60
2019-01-25T16:42:46.980Z,17.57
2019-01-25T16:45:21.432Z,20.67
2019-01-25T16:47:50.076Z,19.53
2019-01-25T16:50:23.589Z,16.90
2019-01-25T16:52:49.513Z,18.33
2019-01-25T16:55:18.132Z,18.10
2019-01-25T16:57:46.763Z,18.93
2019-01-25T17:00:29.635Z,21.65
2019-01-25T17:02:58.346Z,23.80
2019-01-25T17:05:27.021Z,20.73
2019-01-25T17:07:55.640Z,24.50
2019-01-25T17:10:24.354Z,23.37
2019-01-25T17:12:53.038Z,22.87
2019-01-25T17:15:21.789Z,24.87
2019-01-25T17:17:50.364Z,23.33
2019-01-25T17:20:21.486Z,23.40
2019-01-25T17:22:51.975Z,24.53
2019-01-25T17:25:20.645Z,26.77
2019-01-25T17:27:49.255Z,24.73
2019-01-25T17:30:25.833Z,25.20
2019-01-25T17:32:55.502Z,25.80
2019-01-25T17:35:24.339Z,26.33
2019-01-25T17:37:53.045Z,27.70
2019-01-25T17:40:23.812Z,23.57
2019-01-25T17:42:52.463Z,27.10
2019-01-25T17:45:21.123Z,27.50
2019-01-25T17:47:49.764Z,27.77
2019-01-25T17:50:18.454Z,28.17
2019-01-25T17:52:47.105Z,26.70
2019-01-25T17:55:15.926Z,27.83
2019-01-25T17:57:44.546Z,28.23
2019-01-25T18:00:21.661Z,29.47
2019-01-25T18:02:50.604Z,29.70
2019-01-25T18:05:19.228Z,27.43
2019-01-25T18:07:47.908Z,28.47
2019-01-25T18:10:16.897Z,30.27
2019-01-25T18:12:45.778Z,28.87
2019-01-25T18:15:14.672Z,27.63
2019-01-25T18:17:43.379Z,31.47
2019-01-25T18:20:14.143Z,26.70
2019-01-25T18:22:42.900Z,29.60
2019-01-25T18:25:13.611Z,28.10
2019-01-25T18:27:45.729Z,28.07
2019-01-25T18:30:22.272Z,25.37
2019-01-25T18:32:51.339Z,29.57
2019-01-25T18:35:19.956Z,28.07
2019-01-25T18:37:48.627Z,27.73
2019-01-25T18:40:17.253Z,27.87
2019-01-25T18:42:47.698Z,26.67
2019-01-25T18:45:16.741Z,27.83
2019-01-25T18:47:45.902Z,27.67
2019-01-25T18:50:15.254Z,27.15
2019-01-25T18:52:44.014Z,24.93
2019-01-25T18:55:15.316Z,26.07
2019-01-25T18:57:44.006Z,24.53
2019-01-25T19:00:15.742Z,26.20
2019-01-25T19:02:44.477Z,26.10
2019-01-25T19:05:13.154Z,25.47
2019-01-25T19:07:42.108Z,26.17
2019-01-25T19:10:14.138Z,25.67
2019-01-25T19:12:42.953Z,24.33
2019-01-25T19:15:13.300Z,26.80
2019-01-25T19:17:41.970Z,24.93
2019-01-25T19:20:12.027Z,26.43
2019-01-25T19:22:41.113Z,24.30
2019-01-25T19:25:10.030Z,25.63
2019-01-25T19:27:38.719Z,29.37
2019-01-25T19:30:12.667Z,26.33
2019-01-25T19:32:41.339Z,27.90
2019-01-25T19:35:10.149Z,26.40
2019-01-25T19:37:38.773Z,26.00
2019-01-25T19:40:10.007Z,28.83
2019-01-25T19:42:41.466Z,29.33
2019-01-25T19:45:12.047Z,29.03
2019-01-25T19:47:40.791Z,26.53
2019-01-25T19:50:11.437Z,29.03
2019-01-25T19:52:40.051Z,31.07
2019-01-25T19:55:11.766Z,30.73
2019-01-25T19:57:40.554Z,29.93
2019-01-25T20:00:14.804Z,31.57
2019-01-25T20:02:43.492Z,31.73
2019-01-25T20:05:12.940Z,30.47
2019-01-25T20:07:41.689Z,34.50
2019-01-25T20:10:11.048Z,32.77
2019-01-25T20:12:39.744Z,35.00
2019-01-25T20:15:10.307Z,34.77
2019-01-25T20:17:41.265Z,33.70
2019-01-25T20:20:13.655Z,34.47
2019-01-25T20:22:42.576Z,31.37
2019-01-25T20:25:11.508Z,32.47
2019-01-25T20:27:40.221Z,32.10
2019-01-25T20:30:12.324Z,33.70
2019-01-25T20:32:41.128Z,32.37
2019-01-25T20:35:13.682Z,30.90
2019-01-25T20:37:42.576Z,29.63
2019-01-25T20:40:13.202Z,32.97
2019-01-25T20:42:41.875Z,31.10
2019-01-25T20:45:13.760Z,32.40
2019-01-25T20:47:42.505Z,32.03
2019-01-25T20:50:13.874Z,30.80
2019-01-25T20:52:42.600Z,31.80
2019-01-25T20:55:17.095Z,37.43
2019-01-25T20:57:45.961Z,30.30
2019-01-25T21:00:17.556Z,30.88
2019-01-25T21:02:46.241Z,29.50
2019-01-25T21:05:15.076Z,26.70
2019-01-25T21:07:43.867Z,29.70
2019-01-25T21:10:14.643Z,29.90
2019-01-25T21:12:43.451Z,27.63
2019-01-25T21:15:13.746Z,30.93
2019-01-25T21:17:42.558Z,29.00
2019-01-25T21:20:14.354Z,28.03
2019-01-25T21:22:42.975Z,29.97
2019-01-25T21:25:11.904Z,33.70
2019-01-25T21:27:40.859Z,28.00
2019-01-25T21:30:13.427Z,27.50
2019-01-25T21:32:42.221Z,27.33
2019-01-25T21:35:10.827Z,26.73
2019-01-25T21:37:39.629Z,28.10
2019-01-25T21:40:11.224Z,28.60
2019-01-25T21:42:39.867Z,27.87
2019-01-25T21:45:10.862Z,26.70
2019-01-25T21:47:39.488Z,27.50
2019-01-25T21:50:28.697Z,26.67
2019-01-25T21:52:57.331Z,25.10
2019-01-25T21:55:25.959Z,27.10
2019-01-25T21:57:54.686Z,26.80
2019-01-25T22:00:25.796Z,24.50
2019-01-25T22:02:54.452Z,28.13
2019-01-25T22:05:23.077Z,26.33
2019-01-25T22:07:51.696Z,26.63
2019-01-25T22:10:25.964Z,28.10
2019-01-25T22:12:54.613Z,27.27
2019-01-25T22:15:23.206Z,26.13
2019-01-25T22:17:51.841Z,26.13
2019-01-25T22:20:25.040Z,25.73
2019-01-25T22:22:53.686Z,27.22
2019-01-25T22:25:22.410Z,26.23
2019-01-25T22:27:52.446Z,23.47
2019-01-25T22:30:22.849Z,26.40
2019-01-25T22:32:51.563Z,27.63
2019-01-25T22:35:20.222Z,26.53
2019-01-25T22:37:48.848Z,26.53
2019-01-25T22:40:19.696Z,26.13
2019-01-25T22:42:48.352Z,25.73
2019-01-25T22:45:19.067Z,24.87
2019-01-25T22:47:50.399Z,25.60
2019-01-25T22:50:21.248Z,24.23
2019-01-25T22:52:49.844Z,24.70
2019-01-25T22:55:18.748Z,24.07
2019-01-25T22:57:47.376Z,23.97
2019-01-25T23:00:52.688Z,21.83
2019-01-25T23:03:28.096Z,21.53
2019-01-25T23:06:26.668Z,23.37
2019-01-25T23:08:55.564Z,22.80
2019-01-25T23:11:26.501Z,23.47
2019-01-25T23:13:55.191Z,23.13
2019-01-25T23:16:23.969Z,23.77
2019-01-25T23:18:52.544Z,22.13
2019-01-25T23:21:21.146Z,23.90
2019-01-25T23:23:49.756Z,23.27
2019-01-25T23:26:18.336Z,22.43
2019-01-25T23:28:46.977Z,28.37
2019-01-25T23:31:15.607Z,26.30
2019-01-25T23:33:44.244Z,23.60
2019-01-25T23:36:12.851Z,25.10
2019-01-25T23:38:41.468Z,25.37
2019-01-25T23:41:10.079Z,25.67
2019-01-25T23:43:38.717Z,24.47
2019-01-25T23:46:13.681Z,25.47
2019-01-25T23:48:37.655Z,25.73
2019-01-25T23:51:06.297Z,23.10
2019-01-25T23:53:34.910Z,23.43
2019-01-25T23:56:03.851Z,25.40
2019-01-25T23:58:32.487Z,24.23
